createdAt,value
2023-01-08T00:00:34.109Z,-0.12
2023-01-08T00:03:41.807Z,-0.13
2023-01-08T00:06:48.946Z,-0.22
2023-01-08T00:09:55.225Z,-0.24
2023-01-08T00:13:02.144Z,-0.24
2023-01-08T00:16:14.834Z,-0.38
2023-01-08T00:19:21.877Z,-0.32
2023-01-08T00:22:27.834Z,-0.40
2023-01-08T00:25:35.838Z,-0.45
2023-01-08T00:28:43.807Z,-0.46
2023-01-08T00:31:53.314Z,-0.57
2023-01-08T00:34:59.457Z,-0.56
2023-01-08T00:38:06.290Z,-0.59
2023-01-08T00:41:13.023Z,-0.55
2023-01-08T00:44:19.913Z,-0.66
2023-01-08T00:47:28.714Z,-0.67
2023-01-08T00:50:35.649Z,-0.71
2023-01-08T00:53:41.753Z,-0.79
2023-01-08T00:56:48.931Z,-0.81
2023-01-08T00:59:54.974Z,-0.76
2023-01-08T01:03:04.620Z,-0.83
2023-01-08T01:06:12.249Z,-0.86
2023-01-08T01:09:19.195Z,-0.89
2023-01-08T01:12:25.308Z,-1.05
2023-01-08T01:15:32.208Z,-1.07
2023-01-08T01:18:41.024Z,-1.00
2023-01-08T01:21:48.665Z,-0.99
2023-01-08T01:24:54.686Z,-1.00
2023-01-08T01:28:01.582Z,-0.92
2023-01-08T01:31:07.931Z,-0.98
2023-01-08T01:34:17.746Z,-1.02
2023-01-08T01:37:23.771Z,-1.11
2023-01-08T01:40:30.628Z,-1.06
2023-01-08T01:43:44.156Z,-1.13
2023-01-08T01:46:53.491Z,-1.21
2023-01-08T01:50:10.777Z,-1.17
2023-01-08T01:53:27.612Z,-1.27
2023-01-08T01:56:37.091Z,-1.14
2023-01-08T01:59:47.436Z,-1.25
2023-01-08T02:02:55.146Z,-1.31
2023-01-08T02:06:20.634Z,-1.36
2023-01-08T02:09:45.228Z,-1.39
2023-01-08T02:13:03.261Z,-1.31
2023-01-08T02:16:21.936Z,-1.28
2023-01-08T02:19:48.913Z,-1.43
2023-01-08T02:23:24.067Z,-1.44
2023-01-08T02:26:37.584Z,-1.36
2023-01-08T02:29:45.063Z,-1.43
2023-01-08T02:32:52.032Z,-1.46
2023-01-08T02:36:37.473Z,-1.50
2023-01-08T02:40:13.909Z,-1.49
2023-01-08T02:43:38.192Z,-1.45
2023-01-08T02:46:47.039Z,-1.50
2023-01-08T02:50:07.447Z,-1.44
2023-01-08T02:53:21.244Z,-1.48
2023-01-08T02:56:34.147Z,-1.58
2023-01-08T02:59:48.033Z,-1.56
2023-01-08T03:03:06.715Z,-1.44
2023-01-08T03:06:20.425Z,-1.36
2023-01-08T03:09:27.439Z,-1.30
2023-01-08T03:12:52.100Z,-1.38
2023-01-08T03:16:09.915Z,-1.27
2023-01-08T03:19:25.222Z,-1.39
2023-01-08T03:22:35.547Z,-1.41
2023-01-08T03:25:50.554Z,-1.31
2023-01-08T03:29:01.040Z,-1.37
2023-01-08T03:32:19.125Z,-1.33
2023-01-08T03:35:30.439Z,-1.24
2023-01-08T03:38:47.036Z,-1.14
2023-01-08T03:41:57.595Z,-1.40
2023-01-08T03:45:05.603Z,-1.42
2023-01-08T03:48:15.284Z,-1.39
2023-01-08T03:51:22.227Z,-1.30
2023-01-08T03:54:35.400Z,-1.32
2023-01-08T03:57:42.269Z,-1.55
2023-01-08T04:00:48.431Z,-1.62
2023-01-08T04:03:57.923Z,-1.50
2023-01-08T04:07:03.892Z,-1.44
2023-01-08T04:10:11.665Z,-1.44
2023-01-08T04:13:17.784Z,-1.42
2023-01-08T04:16:24.920Z,-1.48
2023-01-08T04:19:33.655Z,-1.45
2023-01-08T04:22:40.731Z,-1.41
2023-01-08T04:25:46.772Z,-1.26
2023-01-08T04:28:53.699Z,-1.13
2023-01-08T04:31:59.817Z,-1.01
2023-01-08T04:35:10.279Z,-0.96
2023-01-08T04:38:16.229Z,-1.17
2023-01-08T04:41:23.075Z,-1.31
2023-01-08T04:44:29.270Z,-1.29
2023-01-08T04:47:36.399Z,-1.50
2023-01-08T04:50:45.042Z,-1.46
2023-01-08T04:53:52.026Z,-1.32
2023-01-08T04:56:58.106Z,-1.14
2023-01-08T05:00:04.945Z,-1.05
2023-01-08T05:03:11.183Z,-1.07
2023-01-08T05:06:20.788Z,-1.10
2023-01-08T05:09:26.898Z,-0.98
2023-01-08T05:12:33.764Z,-0.92
2023-01-08T05:15:39.819Z,-0.88
2023-01-08T05:18:47.212Z,-1.04
2023-01-08T05:21:55.991Z,-1.04
2023-01-08T05:25:02.904Z,-1.01
2023-01-08T05:28:08.934Z,-1.21
2023-01-08T05:31:17.799Z,-1.37
2023-01-08T05:34:24.034Z,-1.27
2023-01-08T05:37:33.503Z,-1.13
2023-01-08T05:40:39.695Z,-1.25
2023-01-08T05:43:46.710Z,-1.44
2023-01-08T05:46:52.924Z,-1.45
2023-01-08T05:49:59.853Z,-1.27
2023-01-08T05:53:10.434Z,-1.14
2023-01-08T05:56:17.573Z,-1.22
2023-01-08T05:59:24.951Z,-1.43
2023-01-08T06:02:31.896Z,-1.61
2023-01-08T06:05:38.050Z,-1.56
2023-01-08T06:08:47.604Z,-1.47
2023-01-08T06:11:54.084Z,-1.39
2023-01-08T06:15:01.103Z,-1.59
2023-01-08T06:18:07.802Z,-1.61
2023-01-08T06:21:15.423Z,-1.48
2023-01-08T06:24:24.143Z,-1.52
2023-01-08T06:27:31.006Z,-1.42
2023-01-08T06:30:37.067Z,-1.53
2023-01-08T06:33:44.085Z,-1.50
2023-01-08T06:36:51.539Z,-1.30
2023-01-08T06:40:01.054Z,-1.23
2023-01-08T06:43:08.550Z,-1.37
2023-01-08T06:46:15.504Z,-1.37
2023-01-08T06:49:22.444Z,-1.50
2023-01-08T06:52:29.596Z,-1.48
2023-01-08T06:55:38.459Z,-1.28
2023-01-08T06:58:45.304Z,-1.12
2023-01-08T07:01:52.055Z,-1.09
2023-01-08T07:04:59.032Z,-1.04
2023-01-08T07:08:05.162Z,-0.99
2023-01-08T07:11:15.716Z,-0.84
2023-01-08T07:14:21.971Z,-0.70
2023-01-08T07:17:29.018Z,-0.70
2023-01-08T07:20:35.318Z,-0.73
2023-01-08T07:23:42.251Z,-0.61
2023-01-08T07:26:50.913Z,-0.71
2023-01-08T07:29:57.871Z,-0.80
2023-01-08T07:33:04.142Z,-0.78
2023-01-08T07:36:12.583Z,-0.76
2023-01-08T07:39:18.755Z,-0.57
2023-01-08T07:42:29.529Z,-0.48
2023-01-08T07:45:35.804Z,-0.17
2023-01-08T07:48:42.724Z,0.04
2023-01-08T07:51:48.927Z,0.13
2023-01-08T07:54:56.128Z,0.32
2023-01-08T07:58:09.695Z,0.51
2023-01-08T08:01:17.476Z,0.66
2023-01-08T08:04:24.663Z,0.70
2023-01-08T08:07:34.863Z,0.72
2023-01-08T08:10:41.591Z,0.64
2023-01-08T08:13:55.952Z,0.51
2023-01-08T08:17:04.238Z,0.24
2023-01-08T08:20:13.390Z,0.32
2023-01-08T08:23:19.870Z,0.33
2023-01-08T08:26:27.629Z,0.17
2023-01-08T08:29:37.659Z,-0.22
2023-01-08T08:32:45.231Z,-0.42
2023-01-08T08:35:53.466Z,-0.49
2023-01-08T08:39:00.514Z,-0.53
2023-01-08T08:42:06.913Z,-0.76
2023-01-08T08:45:17.148Z,-0.54
2023-01-08T08:48:23.374Z,-0.34
2023-01-08T08:51:31.029Z,-0.09
2023-01-08T08:54:38.883Z,-0.20
2023-01-08T08:57:46.827Z,-0.14
2023-01-08T09:00:55.577Z,-0.09
2023-01-08T09:04:02.915Z,0.04
2023-01-08T09:07:09.370Z,-0.08
2023-01-08T09:10:16.638Z,0.56
2023-01-08T09:13:23.664Z,1.55
2023-01-08T09:16:33.474Z,2.07
2023-01-08T09:19:39.778Z,2.04
2023-01-08T09:22:46.768Z,2.45
2023-01-08T09:25:52.916Z,2.14
2023-01-08T09:29:01.086Z,1.87
2023-01-08T09:32:12.915Z,2.11
2023-01-08T09:35:20.258Z,2.31
2023-01-08T09:38:29.538Z,1.77
2023-01-08T09:41:42.633Z,2.69
2023-01-08T09:44:54.884Z,2.84
2023-01-08T09:48:14.308Z,3.41
2023-01-08T09:51:23.927Z,3.51
2023-01-08T09:54:31.106Z,4.59
2023-01-08T09:57:37.504Z,5.23
2023-01-08T10:00:44.893Z,5.02
2023-01-08T10:04:03.126Z,4.55
2023-01-08T10:07:22.183Z,4.63
2023-01-08T10:10:33.930Z,4.18
2023-01-08T10:13:47.800Z,3.62
2023-01-08T10:17:04.343Z,3.67
2023-01-08T10:20:21.491Z,3.54
2023-01-08T10:23:27.992Z,3.26
2023-01-08T10:26:38.147Z,3.47
2023-01-08T10:29:44.426Z,3.40
2023-01-08T10:32:56.653Z,3.47
2023-01-08T10:36:13.013Z,3.23
2023-01-08T10:39:28.793Z,3.16
2023-01-08T10:42:39.894Z,3.30
2023-01-08T10:46:00.665Z,3.97
2023-01-08T10:49:10.973Z,4.57
2023-01-08T10:52:36.456Z,4.65
2023-01-08T10:55:42.628Z,4.83
2023-01-08T10:58:49.631Z,4.77
2023-01-08T11:02:00.008Z,4.78
2023-01-08T11:05:11.735Z,5.03
2023-01-08T11:08:25.187Z,5.28
2023-01-08T11:11:39.112Z,5.45
2023-01-08T11:14:51.736Z,5.60
2023-01-08T11:18:08.076Z,5.73
2023-01-08T11:21:26.285Z,5.74
2023-01-08T11:24:40.570Z,5.80
2023-01-08T11:27:49.867Z,6.19
2023-01-08T11:31:14.896Z,6.20
2023-01-08T11:34:41.022Z,6.17
2023-01-08T11:37:55.655Z,6.73
2023-01-08T11:41:29.964Z,6.91
2023-01-08T11:44:54.254Z,6.75
2023-01-08T11:48:30.195Z,6.91
2023-01-08T11:51:58.272Z,7.26
2023-01-08T11:55:27.311Z,7.98
2023-01-08T11:58:59.135Z,8.59
2023-01-08T12:02:24.674Z,8.68
2023-01-08T12:05:45.313Z,9.13
2023-01-08T12:09:14.083Z,9.46
2023-01-08T12:12:43.021Z,9.00
2023-01-08T12:16:09.711Z,8.81
2023-01-08T12:19:42.651Z,8.43
2023-01-08T12:23:08.257Z,8.07
2023-01-08T12:26:27.334Z,8.37
2023-01-08T12:30:01.890Z,7.98
2023-01-08T12:33:35.390Z,8.70
2023-01-08T12:36:51.675Z,8.72
2023-01-08T12:40:07.879Z,8.73
2023-01-08T12:43:23.132Z,8.90
2023-01-08T12:46:36.645Z,8.38
2023-01-08T12:49:57.435Z,8.50
2023-01-08T12:53:17.759Z,8.76
2023-01-08T12:56:38.612Z,8.78
2023-01-08T12:59:59.221Z,8.58
2023-01-08T13:03:15.189Z,8.27
2023-01-08T13:06:26.616Z,8.53
2023-01-08T13:09:35.702Z,8.50
2023-01-08T13:12:44.715Z,8.57
2023-01-08T13:15:50.928Z,8.53
2023-01-08T13:19:01.817Z,8.21
2023-01-08T13:22:30.288Z,7.79
2023-01-08T13:25:40.189Z,7.76
2023-01-08T13:28:48.837Z,7.37
2023-01-08T13:31:56.891Z,6.96
2023-01-08T13:35:25.572Z,6.35
2023-01-08T13:38:35.157Z,5.96
2023-01-08T13:41:48.889Z,5.67
2023-01-08T13:45:03.734Z,5.56
2023-01-08T13:48:23.191Z,5.23
2023-01-08T13:51:45.587Z,4.96
2023-01-08T13:54:57.203Z,4.84
2023-01-08T13:58:13.440Z,4.58
2023-01-08T14:01:20.160Z,4.36
2023-01-08T14:04:27.819Z,4.05
2023-01-08T14:07:33.938Z,4.03
2023-01-08T14:10:43.535Z,4.17
2023-01-08T14:13:50.855Z,4.20
2023-01-08T14:16:59.191Z,4.03
2023-01-08T14:20:12.266Z,3.88
2023-01-08T14:23:29.503Z,3.82
2023-01-08T14:26:41.595Z,3.59
2023-01-08T14:29:49.075Z,3.37
2023-01-08T14:32:57.776Z,3.15
2023-01-08T14:36:09.610Z,2.96
2023-01-08T14:39:16.221Z,2.83
2023-01-08T14:42:50.324Z,2.82
2023-01-08T14:46:00.143Z,2.73
2023-01-08T14:49:07.205Z,2.68
2023-01-08T14:52:18.719Z,2.55
2023-01-08T14:55:27.684Z,2.51
2023-01-08T14:58:42.292Z,2.39
2023-01-08T15:01:58.844Z,2.18
2023-01-08T15:05:21.478Z,2.28
2023-01-08T15:08:37.822Z,2.29
2023-01-08T15:11:58.975Z,2.23
2023-01-08T15:15:27.532Z,2.10
2023-01-08T15:18:34.629Z,2.07
2023-01-08T15:21:48.571Z,1.90
2023-01-08T15:25:03.119Z,1.77
2023-01-08T15:28:17.746Z,1.88
2023-01-08T15:31:33.621Z,1.76
2023-01-08T15:34:40.662Z,1.87
2023-01-08T15:37:49.345Z,1.84
2023-01-08T15:40:58.080Z,1.75
2023-01-08T15:44:01.779Z,1.69
2023-01-08T15:47:12.136Z,1.91
2023-01-08T15:50:20.717Z,1.69
2023-01-08T15:53:27.976Z,1.81
2023-01-08T15:56:34.164Z,1.66
2023-01-08T15:59:41.145Z,1.85
2023-01-08T16:02:53.379Z,1.66
2023-01-08T16:06:00.681Z,1.47
2023-01-08T16:09:07.267Z,1.68
2023-01-08T16:12:14.264Z,1.63
2023-01-08T16:15:21.079Z,1.61
2023-01-08T16:18:32.157Z,1.78
2023-01-08T16:21:39.037Z,1.71
2023-01-08T16:24:46.041Z,1.80
2023-01-08T16:27:52.259Z,1.77
2023-01-08T16:30:59.339Z,1.60
2023-01-08T16:34:09.599Z,1.56
2023-01-08T16:37:16.858Z,1.71
2023-01-08T16:40:23.157Z,1.35
2023-01-08T16:43:32.789Z,1.51
2023-01-08T16:46:38.899Z,1.44
2023-01-08T16:49:50.593Z,1.64
2023-01-08T16:52:56.709Z,1.50
2023-01-08T16:56:03.776Z,1.51
2023-01-08T16:59:22.338Z,1.63
2023-01-08T17:02:30.298Z,1.87
2023-01-08T17:05:40.268Z,1.89
2023-01-08T17:08:47.258Z,1.71
2023-01-08T17:11:53.596Z,1.84
2023-01-08T17:15:00.646Z,2.09
2023-01-08T17:18:07.450Z,1.89
2023-01-08T17:21:18.418Z,1.89
2023-01-08T17:24:24.655Z,1.80
2023-01-08T17:27:31.754Z,1.60
2023-01-08T17:30:37.980Z,1.41
2023-01-08T17:33:45.556Z,1.41
2023-01-08T17:36:54.311Z,1.36
2023-01-08T17:40:02.507Z,1.45
2023-01-08T17:43:08.768Z,1.52
2023-01-08T17:46:15.899Z,1.44
2023-01-08T17:49:22.177Z,1.57
2023-01-08T17:52:31.924Z,1.72
2023-01-08T17:55:39.103Z,1.69
2023-01-08T17:58:46.118Z,1.73
2023-01-08T18:01:55.185Z,1.84
2023-01-08T18:05:02.152Z,1.81
2023-01-08T18:08:11.025Z,1.80
2023-01-08T18:11:18.330Z,1.85
2023-01-08T18:14:24.998Z,1.82
2023-01-08T18:17:33.437Z,1.58
2023-01-08T18:20:43.118Z,1.63
2023-01-08T18:23:52.833Z,1.67
2023-01-08T18:26:59.331Z,1.64
2023-01-08T18:30:07.099Z,1.60
2023-01-08T18:33:13.356Z,1.51
2023-01-08T18:36:20.956Z,1.50
2023-01-08T18:39:31.151Z,1.73
2023-01-08T18:42:38.079Z,2.04
2023-01-08T18:45:44.383Z,2.22
2023-01-08T18:48:51.418Z,2.39
2023-01-08T18:51:57.473Z,2.50
2023-01-08T18:55:07.729Z,2.65
2023-01-08T18:58:14.159Z,2.55
2023-01-08T19:01:21.511Z,2.48
2023-01-08T19:04:28.669Z,2.38
2023-01-08T19:07:36.247Z,2.22
2023-01-08T19:10:45.091Z,2.08
2023-01-08T19:13:52.143Z,2.01
2023-01-08T19:16:58.621Z,2.17
2023-01-08T19:20:07.062Z,2.19
2023-01-08T19:23:14.013Z,2.06
2023-01-08T19:26:23.864Z,1.97
2023-01-08T19:29:30.029Z,2.06
2023-01-08T19:32:38.663Z,2.17
2023-01-08T19:35:47.338Z,2.03
2023-01-08T19:38:54.820Z,2.15
2023-01-08T19:42:16.545Z,2.22
2023-01-08T19:45:23.493Z,2.20
2023-01-08T19:48:30.727Z,2.26
2023-01-08T19:51:38.592Z,2.29
2023-01-08T19:54:46.401Z,2.42
2023-01-08T19:57:57.789Z,2.36
2023-01-08T20:01:05.967Z,2.35
2023-01-08T20:04:14.344Z,2.07
2023-01-08T20:07:21.785Z,1.97
2023-01-08T20:10:29.250Z,1.92
2023-01-08T20:13:39.125Z,1.82
2023-01-08T20:16:47.935Z,1.71
2023-01-08T20:19:54.995Z,1.42
2023-01-08T20:23:03.574Z,1.68
2023-01-08T20:26:16.637Z,1.95
2023-01-08T20:29:27.605Z,2.01
2023-01-08T20:32:34.604Z,2.23
2023-01-08T20:35:42.400Z,2.35
2023-01-08T20:38:50.200Z,2.35
2023-01-08T20:42:04.301Z,2.43
2023-01-08T20:45:15.808Z,2.52
2023-01-08T20:48:25.328Z,2.50
2023-01-08T20:51:32.996Z,2.38
2023-01-08T20:54:40.352Z,2.24
2023-01-08T20:57:46.581Z,2.24
2023-01-08T21:00:56.379Z,2.21
2023-01-08T21:04:04.061Z,2.23
2023-01-08T21:07:12.244Z,2.23
2023-01-08T21:10:19.955Z,2.17
2023-01-08T21:13:29.987Z,1.98
2023-01-08T21:16:41.718Z,1.78
2023-01-08T21:19:49.025Z,1.67
2023-01-08T21:22:56.463Z,1.61
2023-01-08T21:26:07.529Z,1.56
2023-01-08T21:29:15.024Z,1.57
2023-01-08T21:32:24.534Z,1.43
2023-01-08T21:35:30.720Z,1.52
2023-01-08T21:38:37.996Z,1.61
2023-01-08T21:41:56.403Z,1.85
2023-01-08T21:45:15.708Z,1.87
2023-01-08T21:48:24.527Z,1.85
2023-01-08T21:51:43.823Z,1.82
2023-01-08T21:54:50.436Z,1.70
2023-01-08T21:57:57.363Z,1.79
2023-01-08T22:01:03.635Z,1.88
2023-01-08T22:04:13.605Z,1.82
2023-01-08T22:07:20.245Z,1.71
2023-01-08T22:10:27.256Z,1.62
2023-01-08T22:13:34.584Z,1.57
2023-01-08T22:16:41.709Z,1.78
2023-01-08T22:19:50.395Z,1.62
2023-01-08T22:22:57.338Z,1.44
2023-01-08T22:26:07.692Z,1.50
2023-01-08T22:29:14.615Z,1.32
2023-01-08T22:32:20.827Z,1.31
2023-01-08T22:35:30.375Z,1.51
2023-01-08T22:38:37.755Z,1.82
2023-01-08T22:41:44.783Z,1.65
2023-01-08T22:44:52.866Z,1.85
2023-01-08T22:48:00.353Z,1.98
2023-01-08T22:51:09.599Z,1.91
2023-01-08T22:54:18.313Z,1.97
2023-01-08T22:57:24.398Z,1.89
2023-01-08T23:00:31.306Z,2.06
2023-01-08T23:03:37.332Z,2.15
2023-01-08T23:06:46.845Z,2.23
2023-01-08T23:09:53.092Z,2.19
2023-01-08T23:13:00.236Z,2.04
2023-01-08T23:16:07.327Z,1.97
2023-01-08T23:19:14.720Z,2.00
2023-01-08T23:22:23.495Z,2.20
2023-01-08T23:25:32.253Z,2.03
2023-01-08T23:28:39.019Z,1.99
2023-01-08T23:31:45.937Z,1.77
2023-01-08T23:34:52.441Z,1.43
2023-01-08T23:38:01.918Z,1.28
2023-01-08T23:41:10.418Z,1.00
2023-01-08T23:44:18.984Z,1.05
2023-01-08T23:47:25.269Z,1.11
2023-01-08T23:50:32.201Z,0.73
2023-01-08T23:53:40.920Z,0.66
2023-01-08T23:56:48.014Z,0.72
2023-01-08T23:59:54.162Z,0.83
